sensor_id;sensor_type;location;lat;lon;timestamp;P1;durP1;ratioP1;P2;durP2;ratioP2
53519;SDS011;39397;53.204;5.778;2022-07-23T00:01:19;7.75;;;5.05;;
53519;SDS011;39397;53.204;5.778;2022-07-23T00:03:45;10.77;;;5.72;;
53519;SDS011;39397;53.204;5.778;2022-07-23T00:06:11;8.20;;;5.60;;
53519;SDS011;39397;53.204;5.778;2022-07-23T00:08:37;8.40;;;5.15;;
53519;SDS011;39397;53.204;5.778;2022-07-23T00:11:02;11.50;;;6.32;;
53519;SDS011;39397;53.204;5.778;2022-07-23T00:13:28;11.00;;;6.20;;
53519;SDS011;39397;53.204;5.778;2022-07-23T00:15:54;8.82;;;6.10;;
53519;SDS011;39397;53.204;5.778;2022-07-23T00:18:20;8.27;;;5.65;;
53519;SDS011;39397;53.204;5.778;2022-07-23T00:20:46;16.13;;;6.55;;
53519;SDS011;39397;53.204;5.778;2022-07-23T00:23:11;10.05;;;6.15;;
53519;SDS011;39397;53.204;5.778;2022-07-23T00:25:37;7.10;;;5.93;;
53519;SDS011;39397;53.204;5.778;2022-07-23T00:28:03;8.45;;;6.03;;
53519;SDS011;39397;53.204;5.778;2022-07-23T00:30:29;10.30;;;6.55;;
53519;SDS011;39397;53.204;5.778;2022-07-23T00:32:57;11.30;;;6.47;;
53519;SDS011;39397;53.204;5.778;2022-07-23T00:35:25;10.70;;;6.03;;
53519;SDS011;39397;53.204;5.778;2022-07-23T00:37:53;9.98;;;6.80;;
53519;SDS011;39397;53.204;5.778;2022-07-23T00:40:19;9.25;;;6.80;;
53519;SDS011;39397;53.204;5.778;2022-07-23T00:42:45;10.07;;;6.50;;
53519;SDS011;39397;53.204;5.778;2022-07-23T00:45:10;9.05;;;6.65;;
53519;SDS011;39397;53.204;5.778;2022-07-23T00:47:36;16.80;;;7.45;;
53519;SDS011;39397;53.204;5.778;2022-07-23T00:50:03;11.40;;;6.45;;
53519;SDS011;39397;53.204;5.778;2022-07-23T00:52:30;10.38;;;7.15;;
53519;SDS011;39397;53.204;5.778;2022-07-23T00:54:59;9.80;;;7.03;;
53519;SDS011;39397;53.204;5.778;2022-07-23T00:57:26;9.32;;;7.43;;
53519;SDS011;39397;53.204;5.778;2022-07-23T00:59:51;9.13;;;6.57;;
53519;SDS011;39397;53.204;5.778;2022-07-23T01:02:17;10.63;;;7.57;;
53519;SDS011;39397;53.204;5.778;2022-07-23T01:04:43;12.15;;;6.53;;
53519;SDS011;39397;53.204;5.778;2022-07-23T01:07:09;8.43;;;6.10;;
53519;SDS011;39397;53.204;5.778;2022-07-23T01:09:35;9.30;;;6.10;;
53519;SDS011;39397;53.204;5.778;2022-07-23T01:12:02;8.65;;;6.40;;
53519;SDS011;39397;53.204;5.778;2022-07-23T01:14:28;10.07;;;5.93;;
53519;SDS011;39397;53.204;5.778;2022-07-23T01:16:54;7.90;;;6.53;;
53519;SDS011;39397;53.204;5.778;2022-07-23T01:19:20;10.82;;;6.47;;
53519;SDS011;39397;53.204;5.778;2022-07-23T01:21:47;10.35;;;6.97;;
53519;SDS011;39397;53.204;5.778;2022-07-23T01:24:14;9.60;;;6.43;;
53519;SDS011;39397;53.204;5.778;2022-07-23T01:26:44;9.15;;;7.03;;
53519;SDS011;39397;53.204;5.778;2022-07-23T01:29:11;11.70;;;6.50;;
53519;SDS011;39397;53.204;5.778;2022-07-23T01:31:37;11.63;;;5.70;;
53519;SDS011;39397;53.204;5.778;2022-07-23T01:34:03;8.82;;;7.32;;
53519;SDS011;39397;53.204;5.778;2022-07-23T01:36:31;10.75;;;5.80;;
53519;SDS011;39397;53.204;5.778;2022-07-23T01:38:56;7.78;;;6.03;;
53519;SDS011;39397;53.204;5.778;2022-07-23T01:41:22;9.75;;;6.43;;
53519;SDS011;39397;53.204;5.778;2022-07-23T01:43:48;8.75;;;6.15;;
53519;SDS011;39397;53.204;5.778;2022-07-23T01:46:13;8.48;;;6.00;;
53519;SDS011;39397;53.204;5.778;2022-07-23T01:48:39;8.25;;;5.65;;
53519;SDS011;39397;53.204;5.778;2022-07-23T01:51:05;8.18;;;5.57;;
53519;SDS011;39397;53.204;5.778;2022-07-23T01:53:31;11.30;;;6.72;;
53519;SDS011;39397;53.204;5.778;2022-07-23T01:55:57;10.40;;;6.38;;
53519;SDS011;39397;53.204;5.778;2022-07-23T01:58:24;9.70;;;6.30;;
53519;SDS011;39397;53.204;5.778;2022-07-23T02:00:50;10.48;;;5.72;;
53519;SDS011;39397;53.204;5.778;2022-07-23T02:03:16;8.93;;;5.32;;
53519;SDS011;39397;53.204;5.778;2022-07-23T02:05:42;8.98;;;5.75;;
53519;SDS011;39397;53.204;5.778;2022-07-23T02:08:07;7.10;;;4.72;;
53519;SDS011;39397;53.204;5.778;2022-07-23T02:10:33;7.63;;;5.43;;
53519;SDS011;39397;53.204;5.778;2022-07-23T02:12:59;8.88;;;5.82;;
53519;SDS011;39397;53.204;5.778;2022-07-23T02:15:24;9.43;;;6.00;;
53519;SDS011;39397;53.204;5.778;2022-07-23T02:17:50;10.77;;;6.03;;
53519;SDS011;39397;53.204;5.778;2022-07-23T02:20:16;7.72;;;5.60;;
53519;SDS011;39397;53.204;5.778;2022-07-23T02:22:41;9.52;;;5.90;;
53519;SDS011;39397;53.204;5.778;2022-07-23T02:25:07;11.55;;;5.80;;
53519;SDS011;39397;53.204;5.778;2022-07-23T02:27:34;12.45;;;5.30;;
53519;SDS011;39397;53.204;5.778;2022-07-23T02:29:59;8.90;;;5.53;;
53519;SDS011;39397;53.204;5.778;2022-07-23T02:32:25;9.40;;;5.38;;
53519;SDS011;39397;53.204;5.778;2022-07-23T02:34:52;7.35;;;5.50;;
53519;SDS011;39397;53.204;5.778;2022-07-23T02:37:18;7.57;;;4.95;;
53519;SDS011;39397;53.204;5.778;2022-07-23T02:39:44;10.07;;;5.13;;
53519;SDS011;39397;53.204;5.778;2022-07-23T02:42:09;9.00;;;5.38;;
53519;SDS011;39397;53.204;5.778;2022-07-23T02:44:35;6.82;;;4.78;;
53519;SDS011;39397;53.204;5.778;2022-07-23T02:47:01;7.05;;;4.90;;
53519;SDS011;39397;53.204;5.778;2022-07-23T02:49:27;11.57;;;5.00;;
53519;SDS011;39397;53.204;5.778;2022-07-23T02:51:53;9.07;;;5.43;;
53519;SDS011;39397;53.204;5.778;2022-07-23T02:54:18;10.27;;;4.72;;
53519;SDS011;39397;53.204;5.778;2022-07-23T02:56:44;8.75;;;5.55;;
53519;SDS011;39397;53.204;5.778;2022-07-23T02:59:10;8.15;;;5.28;;
53519;SDS011;39397;53.204;5.778;2022-07-23T03:01:36;9.80;;;5.20;;
53519;SDS011;39397;53.204;5.778;2022-07-23T03:04:01;9.50;;;5.38;;
53519;SDS011;39397;53.204;5.778;2022-07-23T03:06:27;7.43;;;5.50;;
53519;SDS011;39397;53.204;5.778;2022-07-23T03:08:53;9.43;;;5.22;;
53519;SDS011;39397;53.204;5.778;2022-07-23T03:11:19;11.00;;;5.43;;
53519;SDS011;39397;53.204;5.778;2022-07-23T03:13:45;8.10;;;5.38;;
53519;SDS011;39397;53.204;5.778;2022-07-23T03:16:10;6.88;;;5.20;;
53519;SDS011;39397;53.204;5.778;2022-07-23T03:18:36;7.43;;;5.07;;
53519;SDS011;39397;53.204;5.778;2022-07-23T03:21:02;8.23;;;4.95;;
53519;SDS011;39397;53.204;5.778;2022-07-23T03:23:28;6.88;;;5.15;;
53519;SDS011;39397;53.204;5.778;2022-07-23T03:25:53;7.00;;;4.60;;
53519;SDS011;39397;53.204;5.778;2022-07-23T03:28:19;8.68;;;5.45;;
53519;SDS011;39397;53.204;5.778;2022-07-23T03:30:45;9.05;;;5.18;;
53519;SDS011;39397;53.204;5.778;2022-07-23T03:33:12;8.52;;;4.68;;
53519;SDS011;39397;53.204;5.778;2022-07-23T03:35:38;6.90;;;5.35;;
53519;SDS011;39397;53.204;5.778;2022-07-23T03:38:05;10.35;;;5.35;;
53519;SDS011;39397;53.204;5.778;2022-07-23T03:40:30;8.93;;;4.97;;
53519;SDS011;39397;53.204;5.778;2022-07-23T03:42:56;8.73;;;5.95;;
53519;SDS011;39397;53.204;5.778;2022-07-23T03:45:22;9.43;;;5.70;;
53519;SDS011;39397;53.204;5.778;2022-07-23T03:47:47;10.52;;;5.78;;
53519;SDS011;39397;53.204;5.778;2022-07-23T03:50:13;9.25;;;5.05;;
53519;SDS011;39397;53.204;5.778;2022-07-23T03:52:39;11.23;;;5.75;;
53519;SDS011;39397;53.204;5.778;2022-07-23T03:55:05;8.60;;;6.13;;
53519;SDS011;39397;53.204;5.778;2022-07-23T03:57:31;11.30;;;6.78;;
53519;SDS011;39397;53.204;5.778;2022-07-23T03:59:57;10.75;;;6.55;;
53519;SDS011;39397;53.204;5.778;2022-07-23T04:02:23;10.23;;;6.03;;
53519;SDS011;39397;53.204;5.778;2022-07-23T04:04:49;8.38;;;6.28;;
53519;SDS011;39397;53.204;5.778;2022-07-23T04:07:15;9.13;;;6.50;;
53519;SDS011;39397;53.204;5.778;2022-07-23T04:09:42;10.40;;;5.25;;
53519;SDS011;39397;53.204;5.778;2022-07-23T04:12:08;9.02;;;5.38;;
53519;SDS011;39397;53.204;5.778;2022-07-23T04:14:34;7.00;;;5.70;;
53519;SDS011;39397;53.204;5.778;2022-07-23T04:17:00;12.45;;;6.70;;
53519;SDS011;39397;53.204;5.778;2022-07-23T04:19:26;12.73;;;6.60;;
53519;SDS011;39397;53.204;5.778;2022-07-23T04:21:52;8.13;;;6.05;;
53519;SDS011;39397;53.204;5.778;2022-07-23T04:24:18;6.82;;;5.93;;
53519;SDS011;39397;53.204;5.778;2022-07-23T04:26:44;8.02;;;5.63;;
53519;SDS011;39397;53.204;5.778;2022-07-23T04:29:10;7.68;;;5.47;;
53519;SDS011;39397;53.204;5.778;2022-07-23T04:31:36;12.43;;;6.00;;
53519;SDS011;39397;53.204;5.778;2022-07-23T04:34:02;7.88;;;5.40;;
53519;SDS011;39397;53.204;5.778;2022-07-23T04:36:28;7.70;;;5.57;;
53519;SDS011;39397;53.204;5.778;2022-07-23T04:38:54;7.70;;;5.38;;
53519;SDS011;39397;53.204;5.778;2022-07-23T04:41:20;9.80;;;5.10;;
53519;SDS011;39397;53.204;5.778;2022-07-23T04:43:46;8.90;;;5.50;;
53519;SDS011;39397;53.204;5.778;2022-07-23T04:46:11;8.05;;;5.68;;
53519;SDS011;39397;53.204;5.778;2022-07-23T04:48:37;11.43;;;5.47;;
53519;SDS011;39397;53.204;5.778;2022-07-23T04:51:03;7.68;;;4.57;;
53519;SDS011;39397;53.204;5.778;2022-07-23T04:53:29;9.82;;;5.30;;
53519;SDS011;39397;53.204;5.778;2022-07-23T04:55:55;8.02;;;5.00;;
53519;SDS011;39397;53.204;5.778;2022-07-23T04:58:20;6.45;;;4.30;;
53519;SDS011;39397;53.204;5.778;2022-07-23T05:00:46;7.38;;;4.43;;
53519;SDS011;39397;53.204;5.778;2022-07-23T05:03:12;7.55;;;3.83;;
53519;SDS011;39397;53.204;5.778;2022-07-23T05:05:38;6.38;;;4.32;;
53519;SDS011;39397;53.204;5.778;2022-07-23T05:08:04;6.53;;;4.03;;
53519;SDS011;39397;53.204;5.778;2022-07-23T05:10:29;9.73;;;4.70;;
53519;SDS011;39397;53.204;5.778;2022-07-23T05:12:56;5.20;;;3.65;;
53519;SDS011;39397;53.204;5.778;2022-07-23T05:15:22;7.00;;;4.07;;
53519;SDS011;39397;53.204;5.778;2022-07-23T05:17:47;5.97;;;3.78;;
53519;SDS011;39397;53.204;5.778;2022-07-23T05:20:13;9.57;;;3.90;;
53519;SDS011;39397;53.204;5.778;2022-07-23T05:22:39;7.63;;;5.53;;
53519;SDS011;39397;53.204;5.778;2022-07-23T05:25:06;4.50;;;3.05;;
53519;SDS011;39397;53.204;5.778;2022-07-23T05:27:32;6.82;;;3.42;;
53519;SDS011;39397;53.204;5.778;2022-07-23T05:29:58;8.63;;;3.42;;
53519;SDS011;39397;53.204;5.778;2022-07-23T05:32:23;5.40;;;2.95;;
53519;SDS011;39397;53.204;5.778;2022-07-23T05:34:49;6.78;;;2.50;;
53519;SDS011;39397;53.204;5.778;2022-07-23T05:37:15;5.22;;;2.60;;
53519;SDS011;39397;53.204;5.778;2022-07-23T05:39:41;6.85;;;2.30;;
53519;SDS011;39397;53.204;5.778;2022-07-23T05:42:07;4.43;;;2.20;;
53519;SDS011;39397;53.204;5.778;2022-07-23T05:44:33;5.88;;;2.15;;
53519;SDS011;39397;53.204;5.778;2022-07-23T05:46:59;4.70;;;1.90;;
53519;SDS011;39397;53.204;5.778;2022-07-23T05:49:25;2.85;;;1.73;;
53519;SDS011;39397;53.204;5.778;2022-07-23T05:51:51;5.13;;;2.20;;
53519;SDS011;39397;53.204;5.778;2022-07-23T05:54:17;3.78;;;1.40;;
53519;SDS011;39397;53.204;5.778;2022-07-23T05:56:42;4.30;;;1.20;;
53519;SDS011;39397;53.204;5.778;2022-07-23T05:59:08;2.58;;;1.02;;
53519;SDS011;39397;53.204;5.778;2022-07-23T06:01:34;2.63;;;1.10;;
53519;SDS011;39397;53.204;5.778;2022-07-23T06:03:59;2.55;;;1.00;;
53519;SDS011;39397;53.204;5.778;2022-07-23T06:06:25;2.00;;;0.90;;
53519;SDS011;39397;53.204;5.778;2022-07-23T06:08:51;3.50;;;1.20;;
53519;SDS011;39397;53.204;5.778;2022-07-23T06:11:17;2.58;;;1.00;;
53519;SDS011;39397;53.204;5.778;2022-07-23T06:13:42;4.32;;;1.15;;
53519;SDS011;39397;53.204;5.778;2022-07-23T06:16:08;4.55;;;0.90;;
53519;SDS011;39397;53.204;5.778;2022-07-23T06:18:34;3.53;;;0.70;;
53519;SDS011;39397;53.204;5.778;2022-07-23T06:20:59;0.95;;;0.43;;
53519;SDS011;39397;53.204;5.778;2022-07-23T06:23:25;1.67;;;0.50;;
53519;SDS011;39397;53.204;5.778;2022-07-23T06:25:51;0.68;;;0.40;;
53519;SDS011;39397;53.204;5.778;2022-07-23T06:28:17;2.55;;;0.77;;
53519;SDS011;39397;53.204;5.778;2022-07-23T06:30:42;3.05;;;0.85;;
53519;SDS011;39397;53.204;5.778;2022-07-23T06:33:08;2.90;;;0.50;;
53519;SDS011;39397;53.204;5.778;2022-07-23T06:35:34;1.15;;;0.40;;
53519;SDS011;39397;53.204;5.778;2022-07-23T06:38:00;3.53;;;0.50;;
53519;SDS011;39397;53.204;5.778;2022-07-23T06:40:26;4.45;;;0.60;;
53519;SDS011;39397;53.204;5.778;2022-07-23T06:42:51;4.82;;;0.65;;
53519;SDS011;39397;53.204;5.778;2022-07-23T06:45:17;1.70;;;0.40;;
53519;SDS011;39397;53.204;5.778;2022-07-23T06:47:43;0.95;;;0.40;;
53519;SDS011;39397;53.204;5.778;2022-07-23T06:50:09;1.52;;;0.40;;
53519;SDS011;39397;53.204;5.778;2022-07-23T06:52:35;0.98;;;0.45;;
53519;SDS011;39397;53.204;5.778;2022-07-23T06:55:01;2.35;;;0.50;;
53519;SDS011;39397;53.204;5.778;2022-07-23T06:57:27;0.98;;;0.40;;
53519;SDS011;39397;53.204;5.778;2022-07-23T06:59:52;1.25;;;0.50;;
53519;SDS011;39397;53.204;5.778;2022-07-23T07:02:18;1.48;;;0.50;;
53519;SDS011;39397;53.204;5.778;2022-07-23T07:04:44;1.33;;;0.30;;
53519;SDS011;39397;53.204;5.778;2022-07-23T07:07:10;2.45;;;0.30;;
53519;SDS011;39397;53.204;5.778;2022-07-23T07:09:37;1.88;;;0.30;;
53519;SDS011;39397;53.204;5.778;2022-07-23T07:12:03;3.67;;;0.50;;
53519;SDS011;39397;53.204;5.778;2022-07-23T07:14:29;0.93;;;0.30;;
53519;SDS011;39397;53.204;5.778;2022-07-23T07:16:55;1.52;;;0.40;;
53519;SDS011;39397;53.204;5.778;2022-07-23T07:19:20;1.13;;;0.40;;
53519;SDS011;39397;53.204;5.778;2022-07-23T07:21:46;1.27;;;0.50;;
53519;SDS011;39397;53.204;5.778;2022-07-23T07:24:12;2.25;;;0.77;;
53519;SDS011;39397;53.204;5.778;2022-07-23T07:26:38;2.92;;;0.75;;
53519;SDS011;39397;53.204;5.778;2022-07-23T07:29:04;5.25;;;0.70;;
53519;SDS011;39397;53.204;5.778;2022-07-23T07:31:30;1.98;;;0.55;;
53519;SDS011;39397;53.204;5.778;2022-07-23T07:33:56;3.13;;;0.40;;
53519;SDS011;39397;53.204;5.778;2022-07-23T07:36:23;1.30;;;0.50;;
53519;SDS011;39397;53.204;5.778;2022-07-23T07:38:48;3.85;;;0.50;;
53519;SDS011;39397;53.204;5.778;2022-07-23T07:41:14;1.55;;;0.60;;
53519;SDS011;39397;53.204;5.778;2022-07-23T07:43:41;3.13;;;0.40;;
53519;SDS011;39397;53.204;5.778;2022-07-23T07:46:06;1.05;;;0.40;;
53519;SDS011;39397;53.204;5.778;2022-07-23T07:48:39;2.25;;;0.50;;
53519;SDS011;39397;53.204;5.778;2022-07-23T07:51:04;0.80;;;0.40;;
53519;SDS011;39397;53.204;5.778;2022-07-23T07:53:30;1.73;;;0.68;;
53519;SDS011;39397;53.204;5.778;2022-07-23T07:55:56;2.03;;;0.40;;
53519;SDS011;39397;53.204;5.778;2022-07-23T07:58:22;2.10;;;0.60;;
53519;SDS011;39397;53.204;5.778;2022-07-23T08:00:47;3.20;;;0.60;;
53519;SDS011;39397;53.204;5.778;2022-07-23T08:03:13;3.53;;;0.60;;
53519;SDS011;39397;53.204;5.778;2022-07-23T08:05:39;1.60;;;0.60;;
53519;SDS011;39397;53.204;5.778;2022-07-23T08:08:04;2.83;;;0.38;;
53519;SDS011;39397;53.204;5.778;2022-07-23T08:10:30;2.65;;;0.57;;
53519;SDS011;39397;53.204;5.778;2022-07-23T08:12:57;1.70;;;0.40;;
53519;SDS011;39397;53.204;5.778;2022-07-23T08:15:24;2.80;;;0.52;;
53519;SDS011;39397;53.204;5.778;2022-07-23T08:17:52;1.67;;;0.40;;
53519;SDS011;39397;53.204;5.778;2022-07-23T08:20:18;1.85;;;0.60;;
53519;SDS011;39397;53.204;5.778;2022-07-23T08:25:14;1.85;;;0.60;;
53519;SDS011;39397;53.204;5.778;2022-07-23T08:27:41;1.42;;;0.40;;
53519;SDS011;39397;53.204;5.778;2022-07-23T08:30:07;2.50;;;0.80;;
53519;SDS011;39397;53.204;5.778;2022-07-23T08:32:33;1.40;;;0.50;;
53519;SDS011;39397;53.204;5.778;2022-07-23T08:35:12;2.55;;;0.60;;
53519;SDS011;39397;53.204;5.778;2022-07-23T08:37:37;0.73;;;0.30;;
53519;SDS011;39397;53.204;5.778;2022-07-23T08:40:03;4.88;;;0.60;;
53519;SDS011;39397;53.204;5.778;2022-07-23T08:42:29;2.08;;;0.60;;
53519;SDS011;39397;53.204;5.778;2022-07-23T08:44:56;2.05;;;0.50;;
53519;SDS011;39397;53.204;5.778;2022-07-23T08:47:22;1.45;;;0.63;;
53519;SDS011;39397;53.204;5.778;2022-07-23T08:49:47;4.28;;;0.80;;
53519;SDS011;39397;53.204;5.778;2022-07-23T08:52:13;1.90;;;0.50;;
53519;SDS011;39397;53.204;5.778;2022-07-23T08:54:40;2.63;;;0.70;;
53519;SDS011;39397;53.204;5.778;2022-07-23T08:57:06;2.60;;;0.57;;
53519;SDS011;39397;53.204;5.778;2022-07-23T08:59:31;2.25;;;0.80;;
53519;SDS011;39397;53.204;5.778;2022-07-23T09:01:57;2.15;;;0.70;;
53519;SDS011;39397;53.204;5.778;2022-07-23T09:04:25;1.67;;;0.50;;
53519;SDS011;39397;53.204;5.778;2022-07-23T09:06:51;1.50;;;0.60;;
53519;SDS011;39397;53.204;5.778;2022-07-23T09:09:17;1.80;;;0.57;;
53519;SDS011;39397;53.204;5.778;2022-07-23T09:11:47;2.55;;;0.80;;
53519;SDS011;39397;53.204;5.778;2022-07-23T09:14:36;2.10;;;0.50;;
53519;SDS011;39397;53.204;5.778;2022-07-23T09:19:40;2.03;;;0.90;;
53519;SDS011;39397;53.204;5.778;2022-07-23T09:22:23;5.00;;;0.98;;
53519;SDS011;39397;53.204;5.778;2022-07-23T09:30:20;2.50;;;0.80;;
53519;SDS011;39397;53.204;5.778;2022-07-23T09:35:49;1.58;;;0.50;;
53519;SDS011;39397;53.204;5.778;2022-07-23T09:38:17;4.53;;;0.60;;
53519;SDS011;39397;53.204;5.778;2022-07-23T09:40:45;2.25;;;0.73;;
53519;SDS011;39397;53.204;5.778;2022-07-23T09:43:12;4.05;;;0.80;;
53519;SDS011;39397;53.204;5.778;2022-07-23T09:45:38;1.55;;;0.80;;
53519;SDS011;39397;53.204;5.778;2022-07-23T09:48:14;1.98;;;0.60;;
53519;SDS011;39397;53.204;5.778;2022-07-23T09:50:43;3.85;;;0.93;;
53519;SDS011;39397;53.204;5.778;2022-07-23T09:53:11;2.33;;;0.65;;
53519;SDS011;39397;53.204;5.778;2022-07-23T09:55:50;3.60;;;0.68;;
53519;SDS011;39397;53.204;5.778;2022-07-23T09:58:18;1.75;;;0.60;;
53519;SDS011;39397;53.204;5.778;2022-07-23T10:00:46;2.05;;;0.70;;
53519;SDS011;39397;53.204;5.778;2022-07-23T10:03:14;2.17;;;0.65;;
53519;SDS011;39397;53.204;5.778;2022-07-23T10:05:40;2.33;;;0.65;;
53519;SDS011;39397;53.204;5.778;2022-07-23T10:08:08;4.05;;;0.70;;
53519;SDS011;39397;53.204;5.778;2022-07-23T10:10:40;4.57;;;0.80;;
53519;SDS011;39397;53.204;5.778;2022-07-23T10:13:06;1.80;;;0.75;;
53519;SDS011;39397;53.204;5.778;2022-07-23T10:15:51;1.80;;;0.73;;
53519;SDS011;39397;53.204;5.778;2022-07-23T10:18:17;1.42;;;0.50;;
53519;SDS011;39397;53.204;5.778;2022-07-23T10:20:43;3.67;;;0.65;;
53519;SDS011;39397;53.204;5.778;2022-07-23T10:34:30;3.35;;;0.70;;
53519;SDS011;39397;53.204;5.778;2022-07-23T10:37:23;6.18;;;3.05;;
53519;SDS011;39397;53.204;5.778;2022-07-23T10:40:13;1.60;;;0.55;;
53519;SDS011;39397;53.204;5.778;2022-07-23T10:42:42;1.35;;;0.60;;
53519;SDS011;39397;53.204;5.778;2022-07-23T10:45:21;0.88;;;0.40;;
53519;SDS011;39397;53.204;5.778;2022-07-23T10:47:49;2.63;;;0.70;;
53519;SDS011;39397;53.204;5.778;2022-07-23T10:50:16;2.85;;;1.00;;
53519;SDS011;39397;53.204;5.778;2022-07-23T10:52:42;34.30;;;3.45;;
53519;SDS011;39397;53.204;5.778;2022-07-23T10:57:56;2.92;;;0.57;;
53519;SDS011;39397;53.204;5.778;2022-07-23T11:00:23;4.22;;;0.70;;
53519;SDS011;39397;53.204;5.778;2022-07-23T11:02:51;1.73;;;0.70;;
53519;SDS011;39397;53.204;5.778;2022-07-23T11:05:20;3.15;;;0.82;;
53519;SDS011;39397;53.204;5.778;2022-07-23T11:10:41;1.75;;;0.50;;
53519;SDS011;39397;53.204;5.778;2022-07-23T11:24:08;3.75;;;0.82;;
53519;SDS011;39397;53.204;5.778;2022-07-23T11:26:54;1.50;;;0.80;;
53519;SDS011;39397;53.204;5.778;2022-07-23T11:36:53;2.05;;;0.70;;
53519;SDS011;39397;53.204;5.778;2022-07-23T11:39:19;1.85;;;0.68;;
53519;SDS011;39397;53.204;5.778;2022-07-23T11:41:45;2.50;;;0.77;;
53519;SDS011;39397;53.204;5.778;2022-07-23T11:44:30;3.63;;;0.90;;
53519;SDS011;39397;53.204;5.778;2022-07-23T11:46:58;2.90;;;0.60;;
53519;SDS011;39397;53.204;5.778;2022-07-23T11:49:34;3.75;;;0.60;;
53519;SDS011;39397;53.204;5.778;2022-07-23T11:54:37;2.53;;;0.68;;
53519;SDS011;39397;53.204;5.778;2022-07-23T11:57:14;2.08;;;0.70;;
53519;SDS011;39397;53.204;5.778;2022-07-23T11:59:40;2.38;;;0.70;;
53519;SDS011;39397;53.204;5.778;2022-07-23T12:02:08;2.22;;;0.60;;
53519;SDS011;39397;53.204;5.778;2022-07-23T12:04:41;2.47;;;0.57;;
53519;SDS011;39397;53.204;5.778;2022-07-23T12:07:24;1.60;;;0.63;;
53519;SDS011;39397;53.204;5.778;2022-07-23T12:10:03;2.40;;;0.80;;
53519;SDS011;39397;53.204;5.778;2022-07-23T12:12:36;8.98;;;1.95;;
53519;SDS011;39397;53.204;5.778;2022-07-23T12:15:06;2.28;;;0.80;;
53519;SDS011;39397;53.204;5.778;2022-07-23T12:17:34;1.42;;;0.70;;
53519;SDS011;39397;53.204;5.778;2022-07-23T12:20:06;2.58;;;0.70;;
53519;SDS011;39397;53.204;5.778;2022-07-23T12:22:39;1.67;;;0.70;;
53519;SDS011;39397;53.204;5.778;2022-07-23T12:25:08;1.38;;;0.70;;
53519;SDS011;39397;53.204;5.778;2022-07-23T12:27:40;4.88;;;0.80;;
53519;SDS011;39397;53.204;5.778;2022-07-23T12:30:23;3.05;;;0.90;;
53519;SDS011;39397;53.204;5.778;2022-07-23T12:32:51;1.93;;;0.70;;
53519;SDS011;39397;53.204;5.778;2022-07-23T12:35:19;1.30;;;0.60;;
53519;SDS011;39397;53.204;5.778;2022-07-23T12:37:46;2.97;;;0.80;;
53519;SDS011;39397;53.204;5.778;2022-07-23T12:40:21;2.72;;;0.70;;
53519;SDS011;39397;53.204;5.778;2022-07-23T12:42:50;3.13;;;0.90;;
53519;SDS011;39397;53.204;5.778;2022-07-23T12:45:17;1.95;;;0.82;;
53519;SDS011;39397;53.204;5.778;2022-07-23T12:47:53;3.22;;;1.05;;
53519;SDS011;39397;53.204;5.778;2022-07-23T12:50:39;2.78;;;0.85;;
53519;SDS011;39397;53.204;5.778;2022-07-23T12:53:12;2.70;;;1.08;;
53519;SDS011;39397;53.204;5.778;2022-07-23T12:55:38;2.75;;;1.00;;
53519;SDS011;39397;53.204;5.778;2022-07-23T12:58:06;2.83;;;0.70;;
53519;SDS011;39397;53.204;5.778;2022-07-23T13:00:52;2.08;;;0.95;;
53519;SDS011;39397;53.204;5.778;2022-07-23T13:05:56;4.25;;;1.10;;
53519;SDS011;39397;53.204;5.778;2022-07-23T13:08:22;1.55;;;0.90;;
53519;SDS011;39397;53.204;5.778;2022-07-23T13:10:49;3.45;;;0.90;;
53519;SDS011;39397;53.204;5.778;2022-07-23T13:13:16;4.15;;;1.00;;
53519;SDS011;39397;53.204;5.778;2022-07-23T13:15:45;4.03;;;0.85;;
53519;SDS011;39397;53.204;5.778;2022-07-23T13:18:10;4.75;;;1.10;;
53519;SDS011;39397;53.204;5.778;2022-07-23T13:20:36;4.45;;;1.20;;
53519;SDS011;39397;53.204;5.778;2022-07-23T13:23:04;3.15;;;1.30;;
53519;SDS011;39397;53.204;5.778;2022-07-23T13:25:32;2.80;;;1.17;;
53519;SDS011;39397;53.204;5.778;2022-07-23T13:27:58;4.60;;;1.10;;
53519;SDS011;39397;53.204;5.778;2022-07-23T13:30:24;3.08;;;1.38;;
53519;SDS011;39397;53.204;5.778;2022-07-23T13:32:50;3.42;;;1.20;;
53519;SDS011;39397;53.204;5.778;2022-07-23T13:35:16;4.35;;;1.38;;
53519;SDS011;39397;53.204;5.778;2022-07-23T13:37:41;4.75;;;1.13;;
53519;SDS011;39397;53.204;5.778;2022-07-23T13:40:07;4.75;;;1.33;;
53519;SDS011;39397;53.204;5.778;2022-07-23T13:42:33;2.95;;;0.98;;
53519;SDS011;39397;53.204;5.778;2022-07-23T13:44:59;2.50;;;1.10;;
53519;SDS011;39397;53.204;5.778;2022-07-23T13:47:25;5.80;;;3.10;;
53519;SDS011;39397;53.204;5.778;2022-07-23T13:49:51;4.05;;;0.90;;
53519;SDS011;39397;53.204;5.778;2022-07-23T13:52:16;4.28;;;1.33;;
53519;SDS011;39397;53.204;5.778;2022-07-23T13:54:42;2.80;;;1.45;;
53519;SDS011;39397;53.204;5.778;2022-07-23T13:57:08;2.80;;;1.13;;
53519;SDS011;39397;53.204;5.778;2022-07-23T13:59:34;4.13;;;1.50;;
53519;SDS011;39397;53.204;5.778;2022-07-23T14:02:04;4.63;;;1.83;;
53519;SDS011;39397;53.204;5.778;2022-07-23T14:04:30;4.78;;;1.60;;
53519;SDS011;39397;53.204;5.778;2022-07-23T14:06:56;6.57;;;1.48;;
53519;SDS011;39397;53.204;5.778;2022-07-23T14:09:22;6.13;;;1.70;;
53519;SDS011;39397;53.204;5.778;2022-07-23T14:11:48;3.28;;;1.55;;
53519;SDS011;39397;53.204;5.778;2022-07-23T14:14:16;2.92;;;1.20;;
53519;SDS011;39397;53.204;5.778;2022-07-23T14:16:43;4.43;;;1.60;;
53519;SDS011;39397;53.204;5.778;2022-07-23T14:19:09;3.55;;;1.80;;
53519;SDS011;39397;53.204;5.778;2022-07-23T14:21:35;5.35;;;1.40;;
53519;SDS011;39397;53.204;5.778;2022-07-23T14:24:02;4.20;;;1.50;;
53519;SDS011;39397;53.204;5.778;2022-07-23T14:26:28;4.70;;;1.73;;
53519;SDS011;39397;53.204;5.778;2022-07-23T14:28:54;4.57;;;1.40;;
53519;SDS011;39397;53.204;5.778;2022-07-23T14:31:19;2.47;;;1.40;;
53519;SDS011;39397;53.204;5.778;2022-07-23T14:33:45;3.10;;;1.15;;
53519;SDS011;39397;53.204;5.778;2022-07-23T14:36:11;3.83;;;1.23;;
53519;SDS011;39397;53.204;5.778;2022-07-23T14:38:36;4.50;;;1.60;;
53519;SDS011;39397;53.204;5.778;2022-07-23T14:41:02;2.63;;;1.20;;
53519;SDS011;39397;53.204;5.778;2022-07-23T14:43:32;3.35;;;1.08;;
53519;SDS011;39397;53.204;5.778;2022-07-23T14:45:58;3.67;;;1.30;;
53519;SDS011;39397;53.204;5.778;2022-07-23T14:48:24;3.00;;;1.50;;
53519;SDS011;39397;53.204;5.778;2022-07-23T14:50:50;2.92;;;1.38;;
53519;SDS011;39397;53.204;5.778;2022-07-23T14:53:15;3.08;;;1.58;;
53519;SDS011;39397;53.204;5.778;2022-07-23T14:55:41;6.25;;;2.53;;
53519;SDS011;39397;53.204;5.778;2022-07-23T14:58:07;3.42;;;1.60;;
53519;SDS011;39397;53.204;5.778;2022-07-23T15:00:33;3.00;;;1.58;;
53519;SDS011;39397;53.204;5.778;2022-07-23T15:02:58;3.75;;;1.90;;
53519;SDS011;39397;53.204;5.778;2022-07-23T15:05:24;3.63;;;1.33;;
53519;SDS011;39397;53.204;5.778;2022-07-23T15:07:50;3.15;;;1.40;;
53519;SDS011;39397;53.204;5.778;2022-07-23T15:10:16;2.90;;;1.23;;
53519;SDS011;39397;53.204;5.778;2022-07-23T15:12:42;3.15;;;1.15;;
53519;SDS011;39397;53.204;5.778;2022-07-23T15:15:07;2.05;;;1.20;;
53519;SDS011;39397;53.204;5.778;2022-07-23T15:17:33;3.35;;;1.48;;
53519;SDS011;39397;53.204;5.778;2022-07-23T15:19:59;2.63;;;1.40;;
53519;SDS011;39397;53.204;5.778;2022-07-23T15:22:25;3.20;;;1.65;;
53519;SDS011;39397;53.204;5.778;2022-07-23T15:24:51;2.83;;;1.25;;
53519;SDS011;39397;53.204;5.778;2022-07-23T15:27:17;6.22;;;1.60;;
53519;SDS011;39397;53.204;5.778;2022-07-23T15:29:43;2.75;;;1.48;;
53519;SDS011;39397;53.204;5.778;2022-07-23T15:32:09;2.05;;;1.10;;
53519;SDS011;39397;53.204;5.778;2022-07-23T15:34:39;2.08;;;1.10;;
53519;SDS011;39397;53.204;5.778;2022-07-23T15:37:05;3.63;;;1.60;;
53519;SDS011;39397;53.204;5.778;2022-07-23T15:39:31;3.80;;;1.52;;